<?xml version="1.0" encoding="UTF-8" standalone="no" ?>
<gpx xmlns="http://www.topografix.com/GPX/1/1" xmlns:xsi="http://www.w3.org/2001/XMLSchema-instance" xsi:schemaLocation="http://www.topografix.com/GPX/1/1 http://www.topografix.com/GPX/1/1/gpx.xsd" version="1.1" creator="VisuGPX - https://www.visugpx.com">
  <metadata>
    <name>Entrages dh Mika </name>
  </metadata>
  <trk>
    <name><![CDATA[Entrages dh Mika _1]]></name>
    <extensions>
      <line xmlns="http://www.topografix.com/GPX/gpx_style/0/2">
        <color>0000FF</color>
        <width>4</width>
      </line>
    </extensions>
    <trkseg>
      <trkpt lat="44.04156" lon="6.29399">
        <ele>933.2</ele>
      </trkpt>
      <trkpt lat="44.04178" lon="6.29381">
        <ele>935.3</ele>
      </trkpt>
      <trkpt lat="44.04233" lon="6.29358">
        <ele>940.6</ele>
      </trkpt>
      <trkpt lat="44.04236" lon="6.29326">
        <ele>949.4</ele>
      </trkpt>
      <trkpt lat="44.04245" lon="6.29307">
        <ele>953.7</ele>
        <time>2021-11-16T12:17:40Z</time>
      </trkpt>
      <trkpt lat="44.04258" lon="6.29324">
        <ele>949</ele>
      </trkpt>
      <trkpt lat="44.04268" lon="6.29321">
        <ele>949</ele>
        <time>2021-11-16T12:17:55Z</time>
      </trkpt>
      <trkpt lat="44.04296" lon="6.29306">
        <ele>950.1</ele>
        <time>2021-11-16T12:18:02Z</time>
      </trkpt>
      <trkpt lat="44.04318" lon="6.29284">
        <ele>954.1</ele>
        <time>2021-11-16T12:18:03Z</time>
      </trkpt>
      <trkpt lat="44.04333" lon="6.29266">
        <ele>958.5</ele>
        <time>2021-11-16T12:18:05Z</time>
      </trkpt>
      <trkpt lat="44.04346" lon="6.2925">
        <ele>962.9</ele>
        <time>2021-11-16T12:18:07Z</time>
      </trkpt>
      <trkpt lat="44.04367" lon="6.29241">
        <ele>964.1</ele>
        <time>2021-11-16T12:18:12Z</time>
      </trkpt>
      <trkpt lat="44.04384" lon="6.29236">
        <ele>964.4</ele>
        <time>2021-11-16T12:18:18Z</time>
      </trkpt>
      <trkpt lat="44.04393" lon="6.29233">
        <ele>976.2</ele>
        <time>2021-11-16T12:18:20Z</time>
      </trkpt>
      <trkpt lat="44.04398" lon="6.2923">
        <ele>977.2</ele>
        <time>2021-11-16T12:18:24Z</time>
      </trkpt>
      <trkpt lat="44.04406" lon="6.29226">
        <ele>978.2</ele>
        <time>2021-11-16T12:18:29Z</time>
      </trkpt>
      <trkpt lat="44.04408" lon="6.29224">
        <ele>979</ele>
        <time>2021-11-16T12:18:32Z</time>
      </trkpt>
      <trkpt lat="44.04413" lon="6.29221">
        <ele>979.8</ele>
        <time>2021-11-16T12:18:36Z</time>
      </trkpt>
      <trkpt lat="44.04415" lon="6.2922">
        <ele>980</ele>
        <time>2021-11-16T12:18:38Z</time>
      </trkpt>
      <trkpt lat="44.0442" lon="6.29216">
        <ele>980.4</ele>
        <time>2021-11-16T12:18:42Z</time>
      </trkpt>
      <trkpt lat="44.04428" lon="6.29212">
        <ele>981.4</ele>
        <time>2021-11-16T12:18:49Z</time>
      </trkpt>
      <trkpt lat="44.04429" lon="6.29211">
        <ele>981.4</ele>
        <time>2021-11-16T12:18:50Z</time>
      </trkpt>
      <trkpt lat="44.04436" lon="6.29207">
        <ele>982.2</ele>
        <time>2021-11-16T12:18:56Z</time>
      </trkpt>
      <trkpt lat="44.04437" lon="6.29206">
        <ele>982.4</ele>
        <time>2021-11-16T12:18:57Z</time>
      </trkpt>
      <trkpt lat="44.04441" lon="6.29204">
        <ele>983</ele>
        <time>2021-11-16T12:19:01Z</time>
      </trkpt>
      <trkpt lat="44.04455" lon="6.29196">
        <ele>984.8</ele>
        <time>2021-11-16T12:19:14Z</time>
      </trkpt>
      <trkpt lat="44.04456" lon="6.29195">
        <ele>985</ele>
        <time>2021-11-16T12:19:15Z</time>
      </trkpt>
      <trkpt lat="44.04465" lon="6.2919">
        <ele>986.2</ele>
        <time>2021-11-16T12:19:24Z</time>
      </trkpt>
      <trkpt lat="44.04471" lon="6.29182">
        <ele>987.4</ele>
        <time>2021-11-16T12:19:31Z</time>
      </trkpt>
      <trkpt lat="44.04471" lon="6.29181">
        <ele>987.6</ele>
        <time>2021-11-16T12:19:32Z</time>
      </trkpt>
      <trkpt lat="44.04475" lon="6.29178">
        <ele>988</ele>
        <time>2021-11-16T12:19:36Z</time>
      </trkpt>
      <trkpt lat="44.04476" lon="6.29178">
        <ele>988</ele>
        <time>2021-11-16T12:19:37Z</time>
      </trkpt>
      <trkpt lat="44.04481" lon="6.29178">
        <ele>988.6</ele>
        <time>2021-11-16T12:19:41Z</time>
      </trkpt>
      <trkpt lat="44.04486" lon="6.29176">
        <ele>989.6</ele>
        <time>2021-11-16T12:19:46Z</time>
      </trkpt>
      <trkpt lat="44.04492" lon="6.29173">
        <ele>990</ele>
        <time>2021-11-16T12:19:51Z</time>
      </trkpt>
      <trkpt lat="44.04496" lon="6.29167">
        <ele>990.8</ele>
        <time>2021-11-16T12:19:56Z</time>
      </trkpt>
      <trkpt lat="44.045" lon="6.29165">
        <ele>991.6</ele>
        <time>2021-11-16T12:20:01Z</time>
      </trkpt>
      <trkpt lat="44.04501" lon="6.29162">
        <ele>991.8</ele>
        <time>2021-11-16T12:20:03Z</time>
      </trkpt>
      <trkpt lat="44.04506" lon="6.29159">
        <ele>992.8</ele>
        <time>2021-11-16T12:20:11Z</time>
      </trkpt>
      <trkpt lat="44.04512" lon="6.29153">
        <ele>993.4</ele>
        <time>2021-11-16T12:20:20Z</time>
      </trkpt>
      <trkpt lat="44.04521" lon="6.29143">
        <ele>995.4</ele>
        <time>2021-11-16T12:20:31Z</time>
      </trkpt>
      <trkpt lat="44.04524" lon="6.29141">
        <ele>995.8</ele>
        <time>2021-11-16T12:20:34Z</time>
      </trkpt>
      <trkpt lat="44.0453" lon="6.29136">
        <ele>996.8</ele>
        <time>2021-11-16T12:20:41Z</time>
      </trkpt>
      <trkpt lat="44.04537" lon="6.29129">
        <ele>997.8</ele>
        <time>2021-11-16T12:20:49Z</time>
      </trkpt>
      <trkpt lat="44.0454" lon="6.29128">
        <ele>998.2</ele>
        <time>2021-11-16T12:20:51Z</time>
      </trkpt>
      <trkpt lat="44.04553" lon="6.29124">
        <ele>999.6</ele>
        <time>2021-11-16T12:21:01Z</time>
      </trkpt>
      <trkpt lat="44.04566" lon="6.29115">
        <ele>1001.2</ele>
        <time>2021-11-16T12:21:14Z</time>
      </trkpt>
      <trkpt lat="44.04569" lon="6.29112">
        <ele>1001.6</ele>
        <time>2021-11-16T12:21:17Z</time>
      </trkpt>
      <trkpt lat="44.04578" lon="6.29097">
        <ele>1003.4</ele>
        <time>2021-11-16T12:21:29Z</time>
      </trkpt>
      <trkpt lat="44.04579" lon="6.29094">
        <ele>1003.6</ele>
        <time>2021-11-16T12:21:31Z</time>
      </trkpt>
      <trkpt lat="44.04581" lon="6.2909">
        <ele>1004</ele>
        <time>2021-11-16T12:21:34Z</time>
      </trkpt>
      <trkpt lat="44.04589" lon="6.29083">
        <ele>1005</ele>
        <time>2021-11-16T12:21:41Z</time>
      </trkpt>
      <trkpt lat="44.04594" lon="6.2908">
        <ele>1005.8</ele>
        <time>2021-11-16T12:21:45Z</time>
      </trkpt>
      <trkpt lat="44.04607" lon="6.29069">
        <ele>1007.4</ele>
        <time>2021-11-16T12:21:58Z</time>
      </trkpt>
      <trkpt lat="44.04609" lon="6.29066">
        <ele>1008</ele>
        <time>2021-11-16T12:22:01Z</time>
      </trkpt>
      <trkpt lat="44.04615" lon="6.29061">
        <ele>1008.8</ele>
        <time>2021-11-16T12:22:07Z</time>
      </trkpt>
      <trkpt lat="44.04618" lon="6.29057">
        <ele>1009.4</ele>
        <time>2021-11-16T12:22:11Z</time>
      </trkpt>
      <trkpt lat="44.04627" lon="6.29046">
        <ele>1010.6</ele>
        <time>2021-11-16T12:22:21Z</time>
      </trkpt>
      <trkpt lat="44.04631" lon="6.29044">
        <ele>1011</ele>
        <time>2021-11-16T12:22:24Z</time>
      </trkpt>
      <trkpt lat="44.04644" lon="6.29037">
        <ele>1012.4</ele>
        <time>2021-11-16T12:22:34Z</time>
      </trkpt>
      <trkpt lat="44.04648" lon="6.29032">
        <ele>1013</ele>
        <time>2021-11-16T12:22:38Z</time>
      </trkpt>
      <trkpt lat="44.04654" lon="6.29024">
        <ele>1014.2</ele>
        <time>2021-11-16T12:22:51Z</time>
      </trkpt>
      <trkpt lat="44.04656" lon="6.2902">
        <ele>1014.6</ele>
        <time>2021-11-16T12:22:54Z</time>
      </trkpt>
      <trkpt lat="44.04658" lon="6.29014">
        <ele>1015.2</ele>
        <time>2021-11-16T12:22:59Z</time>
      </trkpt>
      <trkpt lat="44.04662" lon="6.28998">
        <ele>1016.4</ele>
        <time>2021-11-16T12:23:09Z</time>
      </trkpt>
      <trkpt lat="44.04666" lon="6.28987">
        <ele>1017.4</ele>
        <time>2021-11-16T12:23:16Z</time>
      </trkpt>
      <trkpt lat="44.04666" lon="6.28978">
        <ele>1018</ele>
        <time>2021-11-16T12:23:21Z</time>
      </trkpt>
      <trkpt lat="44.04672" lon="6.28966">
        <ele>1019.8</ele>
        <time>2021-11-16T12:23:29Z</time>
      </trkpt>
      <trkpt lat="44.04675" lon="6.28964">
        <ele>1020</ele>
        <time>2021-11-16T12:23:31Z</time>
      </trkpt>
      <trkpt lat="44.04692" lon="6.28961">
        <ele>1021.6</ele>
        <time>2021-11-16T12:23:41Z</time>
      </trkpt>
      <trkpt lat="44.04703" lon="6.28955">
        <ele>1022.8</ele>
        <time>2021-11-16T12:23:49Z</time>
      </trkpt>
      <trkpt lat="44.04705" lon="6.28954">
        <ele>1023.2</ele>
        <time>2021-11-16T12:23:51Z</time>
      </trkpt>
      <trkpt lat="44.04713" lon="6.28942">
        <ele>1024.4</ele>
        <time>2021-11-16T12:24:01Z</time>
      </trkpt>
      <trkpt lat="44.04716" lon="6.28938">
        <ele>1025.2</ele>
        <time>2021-11-16T12:24:05Z</time>
      </trkpt>
      <trkpt lat="44.04724" lon="6.28919">
        <ele>1027.2</ele>
        <time>2021-11-16T12:24:18Z</time>
      </trkpt>
      <trkpt lat="44.04725" lon="6.28914">
        <ele>1027.6</ele>
        <time>2021-11-16T12:24:21Z</time>
      </trkpt>
      <trkpt lat="44.04725" lon="6.2891">
        <ele>1027.8</ele>
        <time>2021-11-16T12:24:23Z</time>
      </trkpt>
      <trkpt lat="44.04725" lon="6.28896">
        <ele>1029</ele>
        <time>2021-11-16T12:24:31Z</time>
      </trkpt>
      <trkpt lat="44.04727" lon="6.28884">
        <ele>1029.6</ele>
        <time>2021-11-16T12:24:38Z</time>
      </trkpt>
      <trkpt lat="44.04729" lon="6.28873">
        <ele>1030.6</ele>
        <time>2021-11-16T12:24:44Z</time>
      </trkpt>
      <trkpt lat="44.04732" lon="6.28862">
        <ele>1031.6</ele>
        <time>2021-11-16T12:24:51Z</time>
      </trkpt>
      <trkpt lat="44.04741" lon="6.28849">
        <ele>1032.8</ele>
        <time>2021-11-16T12:25:00Z</time>
      </trkpt>
      <trkpt lat="44.04746" lon="6.2884">
        <ele>1033.8</ele>
        <time>2021-11-16T12:25:06Z</time>
      </trkpt>
      <trkpt lat="44.04753" lon="6.28829">
        <ele>1035</ele>
        <time>2021-11-16T12:25:13Z</time>
      </trkpt>
      <trkpt lat="44.0476" lon="6.28818">
        <ele>1036.2</ele>
        <time>2021-11-16T12:25:21Z</time>
      </trkpt>
      <trkpt lat="44.04773" lon="6.28809">
        <ele>1037.8</ele>
        <time>2021-11-16T12:25:31Z</time>
      </trkpt>
      <trkpt lat="44.04792" lon="6.28795">
        <ele>1040.2</ele>
        <time>2021-11-16T12:25:47Z</time>
      </trkpt>
      <trkpt lat="44.04797" lon="6.28792">
        <ele>1041</ele>
        <time>2021-11-16T12:25:51Z</time>
      </trkpt>
      <trkpt lat="44.04804" lon="6.28787">
        <ele>1042.2</ele>
        <time>2021-11-16T12:25:58Z</time>
      </trkpt>
      <trkpt lat="44.04808" lon="6.28784">
        <ele>1043</ele>
        <time>2021-11-16T12:26:01Z</time>
      </trkpt>
      <trkpt lat="44.04819" lon="6.28772">
        <ele>1044.6</ele>
        <time>2021-11-16T12:26:11Z</time>
      </trkpt>
      <trkpt lat="44.0483" lon="6.28763">
        <ele>1046.6</ele>
        <time>2021-11-16T12:26:21Z</time>
      </trkpt>
      <trkpt lat="44.04832" lon="6.2876">
        <ele>1047</ele>
        <time>2021-11-16T12:26:23Z</time>
      </trkpt>
      <trkpt lat="44.0484" lon="6.28751">
        <ele>1048.2</ele>
        <time>2021-11-16T12:26:31Z</time>
      </trkpt>
      <trkpt lat="44.04854" lon="6.28733">
        <ele>1050.2</ele>
        <time>2021-11-16T12:26:44Z</time>
      </trkpt>
      <trkpt lat="44.04859" lon="6.28723">
        <ele>1051.2</ele>
        <time>2021-11-16T12:26:50Z</time>
      </trkpt>
      <trkpt lat="44.04859" lon="6.28709">
        <ele>1052.4</ele>
        <time>2021-11-16T12:26:57Z</time>
      </trkpt>
      <trkpt lat="44.04852" lon="6.28696">
        <ele>1053.6</ele>
        <time>2021-11-16T12:27:05Z</time>
      </trkpt>
      <trkpt lat="44.04845" lon="6.2869">
        <ele>1054.8</ele>
        <time>2021-11-16T12:27:11Z</time>
      </trkpt>
      <trkpt lat="44.04835" lon="6.28681">
        <ele>1056.8</ele>
        <time>2021-11-16T12:27:21Z</time>
      </trkpt>
      <trkpt lat="44.04834" lon="6.2868">
        <ele>1057</ele>
        <time>2021-11-16T12:27:22Z</time>
      </trkpt>
      <trkpt lat="44.04826" lon="6.28672">
        <ele>1058.8</ele>
        <time>2021-11-16T12:27:29Z</time>
      </trkpt>
      <trkpt lat="44.0482" lon="6.28665">
        <ele>1060</ele>
        <time>2021-11-16T12:27:34Z</time>
      </trkpt>
      <trkpt lat="44.04814" lon="6.28659">
        <ele>1061</ele>
        <time>2021-11-16T12:27:39Z</time>
      </trkpt>
      <trkpt lat="44.04803" lon="6.28643">
        <ele>1062.8</ele>
        <time>2021-11-16T12:27:51Z</time>
      </trkpt>
      <trkpt lat="44.04804" lon="6.28636">
        <ele>1063.2</ele>
        <time>2021-11-16T12:27:54Z</time>
      </trkpt>
      <trkpt lat="44.04809" lon="6.28626">
        <ele>1064</ele>
        <time>2021-11-16T12:27:59Z</time>
      </trkpt>
      <trkpt lat="44.04825" lon="6.28623">
        <ele>1065.4</ele>
        <time>2021-11-16T12:28:06Z</time>
      </trkpt>
      <trkpt lat="44.04835" lon="6.28622">
        <ele>1066.2</ele>
        <time>2021-11-16T12:28:11Z</time>
      </trkpt>
      <trkpt lat="44.04842" lon="6.28621">
        <ele>1067.2</ele>
        <time>2021-11-16T12:28:18Z</time>
      </trkpt>
      <trkpt lat="44.04845" lon="6.28618">
        <ele>1067.8</ele>
        <time>2021-11-16T12:28:21Z</time>
      </trkpt>
      <trkpt lat="44.04858" lon="6.28612">
        <ele>1069.6</ele>
        <time>2021-11-16T12:28:29Z</time>
      </trkpt>
      <trkpt lat="44.04865" lon="6.28601">
        <ele>1070.8</ele>
        <time>2021-11-16T12:28:35Z</time>
      </trkpt>
      <trkpt lat="44.04868" lon="6.28589">
        <ele>1072</ele>
        <time>2021-11-16T12:28:40Z</time>
      </trkpt>
      <trkpt lat="44.04868" lon="6.28578">
        <ele>1073</ele>
        <time>2021-11-16T12:28:44Z</time>
      </trkpt>
      <trkpt lat="44.0487" lon="6.28552">
        <ele>1075.4</ele>
        <time>2021-11-16T12:28:55Z</time>
      </trkpt>
      <trkpt lat="44.04868" lon="6.2854">
        <ele>1076.4</ele>
        <time>2021-11-16T12:29:00Z</time>
      </trkpt>
      <trkpt lat="44.04863" lon="6.28517">
        <ele>1078.2</ele>
        <time>2021-11-16T12:29:11Z</time>
      </trkpt>
      <trkpt lat="44.04862" lon="6.28512">
        <ele>1078.6</ele>
        <time>2021-11-16T12:29:13Z</time>
      </trkpt>
      <trkpt lat="44.04857" lon="6.28494">
        <ele>1080.6</ele>
        <time>2021-11-16T12:29:21Z</time>
      </trkpt>
      <trkpt lat="44.04854" lon="6.2847">
        <ele>1082.8</ele>
        <time>2021-11-16T12:29:31Z</time>
      </trkpt>
      <trkpt lat="44.04854" lon="6.28468">
        <ele>1083</ele>
        <time>2021-11-16T12:29:32Z</time>
      </trkpt>
      <trkpt lat="44.04853" lon="6.28445">
        <ele>1085.2</ele>
        <time>2021-11-16T12:29:41Z</time>
      </trkpt>
      <trkpt lat="44.04852" lon="6.28421">
        <ele>1087.4</ele>
        <time>2021-11-16T12:29:51Z</time>
      </trkpt>
      <trkpt lat="44.04851" lon="6.28408">
        <ele>1088.4</ele>
        <time>2021-11-16T12:29:57Z</time>
      </trkpt>
      <trkpt lat="44.04849" lon="6.28383">
        <ele>1090.8</ele>
        <time>2021-11-16T12:30:08Z</time>
      </trkpt>
      <trkpt lat="44.04849" lon="6.28378">
        <ele>1091.2</ele>
        <time>2021-11-16T12:30:10Z</time>
      </trkpt>
      <trkpt lat="44.04849" lon="6.2837">
        <ele>1092</ele>
        <time>2021-11-16T12:30:13Z</time>
      </trkpt>
      <trkpt lat="44.04849" lon="6.28352">
        <ele>1093.4</ele>
        <time>2021-11-16T12:30:21Z</time>
      </trkpt>
      <trkpt lat="44.04851" lon="6.28344">
        <ele>1094.2</ele>
        <time>2021-11-16T12:30:25Z</time>
      </trkpt>
      <trkpt lat="44.04857" lon="6.28325">
        <ele>1096</ele>
        <time>2021-11-16T12:30:34Z</time>
      </trkpt>
      <trkpt lat="44.04859" lon="6.28321">
        <ele>1096.4</ele>
        <time>2021-11-16T12:30:36Z</time>
      </trkpt>
      <trkpt lat="44.04863" lon="6.28316">
        <ele>1097</ele>
        <time>2021-11-16T12:30:39Z</time>
      </trkpt>
      <trkpt lat="44.04871" lon="6.28296">
        <ele>1098.6</ele>
        <time>2021-11-16T12:30:48Z</time>
      </trkpt>
      <trkpt lat="44.04872" lon="6.2829">
        <ele>1099.2</ele>
        <time>2021-11-16T12:30:51Z</time>
      </trkpt>
      <trkpt lat="44.04879" lon="6.28268">
        <ele>1101.4</ele>
        <time>2021-11-16T12:31:01Z</time>
      </trkpt>
      <trkpt lat="44.04886" lon="6.28245">
        <ele>1103.4</ele>
        <time>2021-11-16T12:31:12Z</time>
      </trkpt>
      <trkpt lat="44.04896" lon="6.28223">
        <ele>1105.4</ele>
        <time>2021-11-16T12:31:24Z</time>
      </trkpt>
      <trkpt lat="44.04897" lon="6.28222">
        <ele>1105.4</ele>
        <time>2021-11-16T12:31:26Z</time>
      </trkpt>
      <trkpt lat="44.04896" lon="6.28219">
        <ele>1106.4</ele>
        <time>2021-11-16T12:31:51Z</time>
      </trkpt>
      <trkpt lat="44.04894" lon="6.28219">
        <ele>1106.6</ele>
        <time>2021-11-16T12:32:00Z</time>
      </trkpt>
      <trkpt lat="44.04893" lon="6.2822">
        <ele>1175.8000488281</ele>
        <time>2019-10-20T09:02:55.000Z</time>
      </trkpt>
      <trkpt lat="44.04893" lon="6.28221">
        <ele>1175.8000488281</ele>
        <time>2019-10-20T09:03:09.000Z</time>
      </trkpt>
      <trkpt lat="44.04893" lon="6.28222">
        <ele>1175.5999755859</ele>
        <time>2019-10-20T09:03:19.000Z</time>
      </trkpt>
      <trkpt lat="44.04898" lon="6.28221">
        <ele>1175.4000244141</ele>
        <time>2019-10-20T09:03:34.000Z</time>
      </trkpt>
      <trkpt lat="44.04903" lon="6.2822">
        <ele>1174.8000488281</ele>
        <time>2019-10-20T09:03:37.000Z</time>
      </trkpt>
      <trkpt lat="44.04916" lon="6.28222">
        <ele>1171.4000244141</ele>
        <time>2019-10-20T09:03:42.000Z</time>
      </trkpt>
      <trkpt lat="44.04929" lon="6.28218">
        <ele>1170.4000244141</ele>
        <time>2019-10-20T09:03:46.000Z</time>
      </trkpt>
      <trkpt lat="44.04933" lon="6.28222">
        <ele>1169.8000488281</ele>
        <time>2019-10-20T09:03:48.000Z</time>
      </trkpt>
      <trkpt lat="44.04943" lon="6.28225">
        <ele>1169.1999511719</ele>
        <time>2019-10-20T09:03:53.000Z</time>
      </trkpt>
      <trkpt lat="44.04952" lon="6.28231">
        <ele>1167.4000244141</ele>
        <time>2019-10-20T09:03:57.000Z</time>
      </trkpt>
      <trkpt lat="44.04967" lon="6.28232">
        <ele>1164.5999755859</ele>
        <time>2019-10-20T09:04:01.000Z</time>
      </trkpt>
      <trkpt lat="44.04974" lon="6.28232">
        <ele>1162.1999511719</ele>
        <time>2019-10-20T09:04:04.000Z</time>
      </trkpt>
      <trkpt lat="44.04981" lon="6.28234">
        <ele>1161.4000244141</ele>
        <time>2019-10-20T09:04:05.000Z</time>
      </trkpt>
      <trkpt lat="44.04996" lon="6.28239">
        <ele>1158.5999755859</ele>
        <time>2019-10-20T09:04:10.000Z</time>
      </trkpt>
      <trkpt lat="44.05002" lon="6.28239">
        <ele>1157.4000244141</ele>
        <time>2019-10-20T09:04:12.000Z</time>
      </trkpt>
      <trkpt lat="44.0501" lon="6.28243">
        <ele>1156.5999755859</ele>
        <time>2019-10-20T09:04:14.000Z</time>
      </trkpt>
      <trkpt lat="44.05033" lon="6.28251">
        <ele>1153</ele>
        <time>2019-10-20T09:04:18.000Z</time>
      </trkpt>
      <trkpt lat="44.05033" lon="6.28251">
        <ele>1152.1999511719</ele>
        <time>2019-10-20T09:04:19.000Z</time>
      </trkpt>
      <trkpt lat="44.05074" lon="6.28249">
        <ele>1149</ele>
        <time>2019-10-20T09:04:26.000Z</time>
      </trkpt>
      <trkpt lat="44.05094" lon="6.28251">
        <ele>1148.4000244141</ele>
        <time>2019-10-20T09:04:29.000Z</time>
      </trkpt>
      <trkpt lat="44.05104" lon="6.28255">
        <ele>1147.8000488281</ele>
        <time>2019-10-20T09:04:32.000Z</time>
      </trkpt>
      <trkpt lat="44.05116" lon="6.28271">
        <ele>1144.4000244141</ele>
        <time>2019-10-20T09:04:39.000Z</time>
      </trkpt>
      <trkpt lat="44.05124" lon="6.2828">
        <ele>1142.4000244141</ele>
        <time>2019-10-20T09:04:41.000Z</time>
      </trkpt>
      <trkpt lat="44.05131" lon="6.28288">
        <ele>1140</ele>
        <time>2019-10-20T09:04:44.000Z</time>
      </trkpt>
      <trkpt lat="44.05135" lon="6.28299">
        <ele>1137.1999511719</ele>
        <time>2019-10-20T09:04:48.000Z</time>
      </trkpt>
      <trkpt lat="44.05137" lon="6.28302">
        <ele>1136.5999755859</ele>
        <time>2019-10-20T09:04:49.000Z</time>
      </trkpt>
      <trkpt lat="44.05146" lon="6.28307">
        <ele>1133</ele>
        <time>2019-10-20T09:04:54.000Z</time>
      </trkpt>
      <trkpt lat="44.05161" lon="6.28306">
        <ele>1132</ele>
        <time>2019-10-20T09:05:00.000Z</time>
      </trkpt>
      <trkpt lat="44.05164" lon="6.28304">
        <ele>1130</ele>
        <time>2019-10-20T09:05:07.000Z</time>
      </trkpt>
      <trkpt lat="44.05163" lon="6.28304">
        <ele>1129.8000488281</ele>
        <time>2019-10-20T09:05:16.000Z</time>
      </trkpt>
      <trkpt lat="44.05164" lon="6.28303">
        <ele>1129</ele>
        <time>2019-10-20T09:05:39.000Z</time>
      </trkpt>
      <trkpt lat="44.05164" lon="6.28303">
        <ele>1129</ele>
        <time>2019-10-20T09:05:49.000Z</time>
      </trkpt>
      <trkpt lat="44.05164" lon="6.28303">
        <ele>1128.4000244141</ele>
        <time>2019-10-20T09:05:59.000Z</time>
      </trkpt>
      <trkpt lat="44.05162" lon="6.28301">
        <ele>1128</ele>
        <time>2019-10-20T09:06:09.000Z</time>
      </trkpt>
      <trkpt lat="44.05162" lon="6.283">
        <ele>1127.5999755859</ele>
        <time>2019-10-20T09:06:19.000Z</time>
      </trkpt>
      <trkpt lat="44.05164" lon="6.28297">
        <ele>1125.5999755859</ele>
        <time>2019-10-20T09:06:24.000Z</time>
      </trkpt>
      <trkpt lat="44.05165" lon="6.2829">
        <ele>1124.4000244141</ele>
        <time>2019-10-20T09:06:27.000Z</time>
      </trkpt>
      <trkpt lat="44.05166" lon="6.28284">
        <ele>1121.5999755859</ele>
        <time>2019-10-20T09:06:30.000Z</time>
      </trkpt>
      <trkpt lat="44.05167" lon="6.28267">
        <ele>1116.5999755859</ele>
        <time>2019-10-20T09:06:36.000Z</time>
      </trkpt>
      <trkpt lat="44.05167" lon="6.28267">
        <ele>1115.4000244141</ele>
        <time>2019-10-20T09:06:37.000Z</time>
      </trkpt>
      <trkpt lat="44.05168" lon="6.28254">
        <ele>1112.1999511719</ele>
        <time>2019-10-20T09:06:41.000Z</time>
      </trkpt>
      <trkpt lat="44.05168" lon="6.28237">
        <ele>1109.8000488281</ele>
        <time>2019-10-20T09:06:46.000Z</time>
      </trkpt>
      <trkpt lat="44.05166" lon="6.28219">
        <ele>1107.1999511719</ele>
        <time>2019-10-20T09:06:52.000Z</time>
      </trkpt>
      <trkpt lat="44.05166" lon="6.28206">
        <ele>1102.8000488281</ele>
        <time>2019-10-20T09:06:58.000Z</time>
      </trkpt>
      <trkpt lat="44.05166" lon="6.28206">
        <ele>1102</ele>
        <time>2019-10-20T09:06:59.000Z</time>
      </trkpt>
      <trkpt lat="44.05166" lon="6.28196">
        <ele>1100</ele>
        <time>2019-10-20T09:07:02.000Z</time>
      </trkpt>
      <trkpt lat="44.05166" lon="6.2819">
        <ele>1096.8000488281</ele>
        <time>2019-10-20T09:07:06.000Z</time>
      </trkpt>
      <trkpt lat="44.05167" lon="6.28183">
        <ele>1094.8000488281</ele>
        <time>2019-10-20T09:07:12.000Z</time>
      </trkpt>
      <trkpt lat="44.05167" lon="6.28171">
        <ele>1092.8000488281</ele>
        <time>2019-10-20T09:07:15.000Z</time>
      </trkpt>
      <trkpt lat="44.05169" lon="6.2816">
        <ele>1090.1999511719</ele>
        <time>2019-10-20T09:07:17.000Z</time>
      </trkpt>
      <trkpt lat="44.05169" lon="6.28157">
        <ele>1088.1999511719</ele>
        <time>2019-10-20T09:07:19.000Z</time>
      </trkpt>
      <trkpt lat="44.05175" lon="6.28148">
        <ele>1086</ele>
        <time>2019-10-20T09:07:25.000Z</time>
      </trkpt>
      <trkpt lat="44.05176" lon="6.2815">
        <ele>1085.5999755859</ele>
        <time>2019-10-20T09:07:26.000Z</time>
      </trkpt>
      <trkpt lat="44.05182" lon="6.28157">
        <ele>1082.8000488281</ele>
        <time>2019-10-20T09:07:31.000Z</time>
      </trkpt>
      <trkpt lat="44.05184" lon="6.28155">
        <ele>1081.1999511719</ele>
        <time>2019-10-20T09:07:34.000Z</time>
      </trkpt>
      <trkpt lat="44.05189" lon="6.28157">
        <ele>1079.5999755859</ele>
        <time>2019-10-20T09:07:36.000Z</time>
      </trkpt>
      <trkpt lat="44.05192" lon="6.28164">
        <ele>1076.4000244141</ele>
        <time>2019-10-20T09:07:39.000Z</time>
      </trkpt>
      <trkpt lat="44.05193" lon="6.28165">
        <ele>1075.4000244141</ele>
        <time>2019-10-20T09:07:40.000Z</time>
      </trkpt>
      <trkpt lat="44.05202" lon="6.28171">
        <ele>1073.4000244141</ele>
        <time>2019-10-20T09:07:44.000Z</time>
      </trkpt>
      <trkpt lat="44.05214" lon="6.28185">
        <ele>1069.1999511719</ele>
        <time>2019-10-20T09:07:50.000Z</time>
      </trkpt>
      <trkpt lat="44.05215" lon="6.28185">
        <ele>1067.5999755859</ele>
        <time>2019-10-20T09:07:52.000Z</time>
      </trkpt>
      <trkpt lat="44.05226" lon="6.28199">
        <ele>1065.1999511719</ele>
        <time>2019-10-20T09:07:58.000Z</time>
      </trkpt>
      <trkpt lat="44.05229" lon="6.28201">
        <ele>1064.8000488281</ele>
        <time>2019-10-20T09:07:59.000Z</time>
      </trkpt>
      <trkpt lat="44.05238" lon="6.28216">
        <ele>1062.5999755859</ele>
        <time>2019-10-20T09:08:04.000Z</time>
      </trkpt>
      <trkpt lat="44.05249" lon="6.28228">
        <ele>1058.8000488281</ele>
        <time>2019-10-20T09:08:09.000Z</time>
      </trkpt>
      <trkpt lat="44.05251" lon="6.28231">
        <ele>1058.1999511719</ele>
        <time>2019-10-20T09:08:10.000Z</time>
      </trkpt>
      <trkpt lat="44.05258" lon="6.28238">
        <ele>1055.8000488281</ele>
        <time>2019-10-20T09:08:15.000Z</time>
      </trkpt>
      <trkpt lat="44.05271" lon="6.28253">
        <ele>1051.8000488281</ele>
        <time>2019-10-20T09:08:21.000Z</time>
      </trkpt>
      <trkpt lat="44.05275" lon="6.28257">
        <ele>1050</ele>
        <time>2019-10-20T09:08:23.000Z</time>
      </trkpt>
      <trkpt lat="44.05295" lon="6.28277">
        <ele>1045.1999511719</ele>
        <time>2019-10-20T09:08:29.000Z</time>
      </trkpt>
      <trkpt lat="44.05299" lon="6.28284">
        <ele>1044</ele>
        <time>2019-10-20T09:08:31.000Z</time>
      </trkpt>
      <trkpt lat="44.05308" lon="6.28287">
        <ele>1041.5999755859</ele>
        <time>2019-10-20T09:08:35.000Z</time>
      </trkpt>
      <trkpt lat="44.0531" lon="6.2829">
        <ele>1040.1999511719</ele>
        <time>2019-10-20T09:08:39.000Z</time>
      </trkpt>
      <trkpt lat="44.05312" lon="6.28294">
        <ele>1039.8000488281</ele>
        <time>2019-10-20T09:08:40.000Z</time>
      </trkpt>
      <trkpt lat="44.05316" lon="6.28299">
        <ele>1037.1999511719</ele>
        <time>2019-10-20T09:08:45.000Z</time>
      </trkpt>
      <trkpt lat="44.05319" lon="6.28304">
        <ele>1036.8000488281</ele>
        <time>2019-10-20T09:08:46.000Z</time>
      </trkpt>
      <trkpt lat="44.0532" lon="6.28311">
        <ele>1035.1999511719</ele>
        <time>2019-10-20T09:08:49.000Z</time>
      </trkpt>
      <trkpt lat="44.05325" lon="6.28324">
        <ele>1033</ele>
        <time>2019-10-20T09:08:52.000Z</time>
      </trkpt>
      <trkpt lat="44.05324" lon="6.28335">
        <ele>1031.8000488281</ele>
        <time>2019-10-20T09:08:55.000Z</time>
      </trkpt>
      <trkpt lat="44.05331" lon="6.28344">
        <ele>1029.4000244141</ele>
        <time>2019-10-20T09:09:01.000Z</time>
      </trkpt>
      <trkpt lat="44.05335" lon="6.28354">
        <ele>1027.4000244141</ele>
        <time>2019-10-20T09:09:03.000Z</time>
      </trkpt>
      <trkpt lat="44.05338" lon="6.28363">
        <ele>1025.4000244141</ele>
        <time>2019-10-20T09:09:05.000Z</time>
      </trkpt>
      <trkpt lat="44.05339" lon="6.28377">
        <ele>1021.799987793</ele>
        <time>2019-10-20T09:09:08.000Z</time>
      </trkpt>
      <trkpt lat="44.05341" lon="6.28382">
        <ele>1020.5999755859</ele>
        <time>2019-10-20T09:09:09.000Z</time>
      </trkpt>
      <trkpt lat="44.05344" lon="6.2839">
        <ele>1017.799987793</ele>
        <time>2019-10-20T09:09:11.000Z</time>
      </trkpt>
      <trkpt lat="44.05346" lon="6.28401">
        <ele>1014.200012207</ele>
        <time>2019-10-20T09:09:14.000Z</time>
      </trkpt>
      <trkpt lat="44.05347" lon="6.28403">
        <ele>1012.799987793</ele>
        <time>2019-10-20T09:09:15.000Z</time>
      </trkpt>
      <trkpt lat="44.05351" lon="6.28408">
        <ele>1009.799987793</ele>
        <time>2019-10-20T09:09:19.000Z</time>
      </trkpt>
      <trkpt lat="44.05354" lon="6.28413">
        <ele>1007.5999755859</ele>
        <time>2019-10-20T09:09:22.000Z</time>
      </trkpt>
      <trkpt lat="44.05354" lon="6.28415">
        <ele>1007</ele>
        <time>2019-10-20T09:09:23.000Z</time>
      </trkpt>
      <trkpt lat="44.05349" lon="6.2843">
        <ele>1004.200012207</ele>
        <time>2019-10-20T09:09:29.000Z</time>
      </trkpt>
      <trkpt lat="44.05348" lon="6.28432">
        <ele>1004</ele>
        <time>2019-10-20T09:09:30.000Z</time>
      </trkpt>
      <trkpt lat="44.05355" lon="6.28453">
        <ele>1001</ele>
        <time>2019-10-20T09:09:36.000Z</time>
      </trkpt>
      <trkpt lat="44.05356" lon="6.28462">
        <ele>998.40002441406</ele>
        <time>2019-10-20T09:09:39.000Z</time>
      </trkpt>
      <trkpt lat="44.05357" lon="6.28464">
        <ele>997.79998779297</ele>
        <time>2019-10-20T09:09:40.000Z</time>
      </trkpt>
      <trkpt lat="44.05358" lon="6.28481">
        <ele>993.20001220703</ele>
        <time>2019-10-20T09:09:45.000Z</time>
      </trkpt>
      <trkpt lat="44.0536" lon="6.2849">
        <ele>990.79998779297</ele>
        <time>2019-10-20T09:09:48.000Z</time>
      </trkpt>
      <trkpt lat="44.05361" lon="6.28492">
        <ele>989.40002441406</ele>
        <time>2019-10-20T09:09:50.000Z</time>
      </trkpt>
      <trkpt lat="44.05368" lon="6.28487">
        <ele>986.40002441406</ele>
        <time>2019-10-20T09:09:54.000Z</time>
      </trkpt>
      <trkpt lat="44.05373" lon="6.28483">
        <ele>985.20001220703</ele>
        <time>2019-10-20T09:09:57.000Z</time>
      </trkpt>
      <trkpt lat="44.0538" lon="6.28486">
        <ele>983.59997558594</ele>
        <time>2019-10-20T09:10:00.000Z</time>
      </trkpt>
      <trkpt lat="44.05381" lon="6.28491">
        <ele>981</ele>
        <time>2019-10-20T09:10:03.000Z</time>
      </trkpt>
      <trkpt lat="44.05382" lon="6.28495">
        <ele>980</ele>
        <time>2019-10-20T09:10:05.000Z</time>
      </trkpt>
      <trkpt lat="44.05384" lon="6.28503">
        <ele>977.40002441406</ele>
        <time>2019-10-20T09:10:09.000Z</time>
      </trkpt>
      <trkpt lat="44.05388" lon="6.28506">
        <ele>976.20001220703</ele>
        <time>2019-10-20T09:10:11.000Z</time>
      </trkpt>
      <trkpt lat="44.05389" lon="6.28508">
        <ele>973.20001220703</ele>
        <time>2019-10-20T09:10:19.000Z</time>
      </trkpt>
      <trkpt lat="44.0539" lon="6.28507">
        <ele>972.59997558594</ele>
        <time>2019-10-20T09:10:30.000Z</time>
      </trkpt>
      <trkpt lat="44.0539" lon="6.28506">
        <ele>973.20001220703</ele>
        <time>2019-10-20T09:10:39.000Z</time>
      </trkpt>
      <trkpt lat="44.05386" lon="6.28507">
        <ele>973.20001220703</ele>
        <time>2019-10-20T09:11:04.000Z</time>
      </trkpt>
      <trkpt lat="44.05386" lon="6.28508">
        <ele>973.59997558594</ele>
        <time>2019-10-20T09:11:13.000Z</time>
      </trkpt>
      <trkpt lat="44.05384" lon="6.28506">
        <ele>974.79998779297</ele>
        <time>2019-10-20T09:11:20.000Z</time>
      </trkpt>
      <trkpt lat="44.05384" lon="6.285">
        <ele>975</ele>
        <time>2019-10-20T09:11:39.000Z</time>
      </trkpt>
      <trkpt lat="44.05383" lon="6.28499">
        <ele>974.59997558594</ele>
        <time>2019-10-20T09:11:48.000Z</time>
      </trkpt>
      <trkpt lat="44.05384" lon="6.28497">
        <ele>974.59997558594</ele>
        <time>2019-10-20T09:11:55.000Z</time>
      </trkpt>
      <trkpt lat="44.05384" lon="6.28497">
        <ele>974.79998779297</ele>
        <time>2019-10-20T09:11:57.000Z</time>
      </trkpt>
      <trkpt lat="44.05382" lon="6.28499">
        <ele>975</ele>
        <time>2019-10-20T09:11:59.000Z</time>
      </trkpt>
      <trkpt lat="44.05377" lon="6.28502">
        <ele>976</ele>
        <time>2019-10-20T09:12:04.000Z</time>
      </trkpt>
      <trkpt lat="44.05377" lon="6.28503">
        <ele>977</ele>
        <time>2019-10-20T09:12:10.000Z</time>
      </trkpt>
      <trkpt lat="44.05376" lon="6.28503">
        <ele>977.40002441406</ele>
        <time>2019-10-20T09:12:13.000Z</time>
      </trkpt>
      <trkpt lat="44.05376" lon="6.28501">
        <ele>977.40002441406</ele>
        <time>2019-10-20T09:12:19.000Z</time>
      </trkpt>
      <trkpt lat="44.05377" lon="6.28501">
        <ele>977</ele>
        <time>2019-10-20T09:12:24.000Z</time>
      </trkpt>
      <trkpt lat="44.05383" lon="6.285">
        <ele>975.79998779297</ele>
        <time>2019-10-20T09:12:37.000Z</time>
      </trkpt>
      <trkpt lat="44.05384" lon="6.28502">
        <ele>974.79998779297</ele>
        <time>2019-10-20T09:12:41.000Z</time>
      </trkpt>
      <trkpt lat="44.05383" lon="6.28499">
        <ele>974</ele>
        <time>2019-10-20T09:12:49.000Z</time>
      </trkpt>
      <trkpt lat="44.05381" lon="6.28501">
        <ele>974.40002441406</ele>
        <time>2019-10-20T09:13:08.000Z</time>
      </trkpt>
      <trkpt lat="44.05382" lon="6.28504">
        <ele>973.79998779297</ele>
        <time>2019-10-20T09:13:16.000Z</time>
      </trkpt>
      <trkpt lat="44.05382" lon="6.28503">
        <ele>973.59997558594</ele>
        <time>2019-10-20T09:13:17.000Z</time>
      </trkpt>
      <trkpt lat="44.05383" lon="6.28502">
        <ele>973.59997558594</ele>
        <time>2019-10-20T09:13:19.000Z</time>
      </trkpt>
      <trkpt lat="44.05382" lon="6.285">
        <ele>974.20001220703</ele>
        <time>2019-10-20T09:13:26.000Z</time>
      </trkpt>
      <trkpt lat="44.05382" lon="6.28499">
        <ele>974.59997558594</ele>
        <time>2019-10-20T09:13:29.000Z</time>
      </trkpt>
      <trkpt lat="44.05382" lon="6.28498">
        <ele>974.79998779297</ele>
        <time>2019-10-20T09:13:35.000Z</time>
      </trkpt>
      <trkpt lat="44.05383" lon="6.28497">
        <ele>974.79998779297</ele>
        <time>2019-10-20T09:13:38.000Z</time>
      </trkpt>
      <trkpt lat="44.05382" lon="6.28498">
        <ele>974.59997558594</ele>
        <time>2019-10-20T09:13:40.000Z</time>
      </trkpt>
      <trkpt lat="44.05382" lon="6.28499">
        <ele>974.40002441406</ele>
        <time>2019-10-20T09:13:45.000Z</time>
      </trkpt>
      <trkpt lat="44.05384" lon="6.28496">
        <ele>974.40002441406</ele>
        <time>2019-10-20T09:13:59.000Z</time>
      </trkpt>
      <trkpt lat="44.05382" lon="6.28498">
        <ele>974.40002441406</ele>
        <time>2019-10-20T09:14:08.000Z</time>
      </trkpt>
      <trkpt lat="44.05381" lon="6.28501">
        <ele>973.40002441406</ele>
        <time>2019-10-20T09:14:11.000Z</time>
      </trkpt>
      <trkpt lat="44.05384" lon="6.285">
        <ele>973.59997558594</ele>
        <time>2019-10-20T09:14:19.000Z</time>
      </trkpt>
      <trkpt lat="44.05387" lon="6.28505">
        <ele>971.59997558594</ele>
        <time>2019-10-20T09:14:37.000Z</time>
      </trkpt>
      <trkpt lat="44.05387" lon="6.28505">
        <ele>971.20001220703</ele>
        <time>2019-10-20T09:14:38.000Z</time>
      </trkpt>
      <trkpt lat="44.05388" lon="6.28509">
        <ele>970.40002441406</ele>
        <time>2019-10-20T09:14:49.000Z</time>
      </trkpt>
      <trkpt lat="44.05389" lon="6.28504">
        <ele>969.79998779297</ele>
        <time>2019-10-20T09:14:52.000Z</time>
      </trkpt>
      <trkpt lat="44.05389" lon="6.28504">
        <ele>969.79998779297</ele>
        <time>2019-10-20T09:14:54.000Z</time>
      </trkpt>
      <trkpt lat="44.05389" lon="6.28501">
        <ele>969.79998779297</ele>
        <time>2019-10-20T09:14:59.000Z</time>
      </trkpt>
      <trkpt lat="44.05389" lon="6.28501">
        <ele>969.79998779297</ele>
        <time>2019-10-20T09:15:02.000Z</time>
      </trkpt>
      <trkpt lat="44.05388" lon="6.28502">
        <ele>969.79998779297</ele>
        <time>2019-10-20T09:15:09.000Z</time>
      </trkpt>
      <trkpt lat="44.0539" lon="6.28504">
        <ele>968.79998779297</ele>
        <time>2019-10-20T09:15:26.000Z</time>
      </trkpt>
      <trkpt lat="44.05391" lon="6.28505">
        <ele>968.79998779297</ele>
        <time>2019-10-20T09:15:29.000Z</time>
      </trkpt>
      <trkpt lat="44.05391" lon="6.28505">
        <ele>968.59997558594</ele>
        <time>2019-10-20T09:15:33.000Z</time>
      </trkpt>
      <trkpt lat="44.0539" lon="6.28505">
        <ele>969</ele>
        <time>2019-10-20T09:15:39.000Z</time>
      </trkpt>
      <trkpt lat="44.05395" lon="6.28507">
        <ele>968.40002441406</ele>
        <time>2019-10-20T09:15:43.000Z</time>
      </trkpt>
      <trkpt lat="44.05402" lon="6.28512">
        <ele>965.79998779297</ele>
        <time>2019-10-20T09:15:47.000Z</time>
      </trkpt>
      <trkpt lat="44.05404" lon="6.28513">
        <ele>964.59997558594</ele>
        <time>2019-10-20T09:15:48.000Z</time>
      </trkpt>
      <trkpt lat="44.05409" lon="6.28515">
        <ele>962.40002441406</ele>
        <time>2019-10-20T09:15:50.000Z</time>
      </trkpt>
      <trkpt lat="44.05416" lon="6.28533">
        <ele>957</ele>
        <time>2019-10-20T09:15:55.000Z</time>
      </trkpt>
      <trkpt lat="44.05416" lon="6.28537">
        <ele>955.59997558594</ele>
        <time>2019-10-20T09:15:56.000Z</time>
      </trkpt>
      <trkpt lat="44.05412" lon="6.28549">
        <ele>951.59997558594</ele>
        <time>2019-10-20T09:16:01.000Z</time>
      </trkpt>
      <trkpt lat="44.05409" lon="6.28554">
        <ele>950.20001220703</ele>
        <time>2019-10-20T09:16:03.000Z</time>
      </trkpt>
      <trkpt lat="44.05399" lon="6.28569">
        <ele>947.40002441406</ele>
        <time>2019-10-20T09:16:09.000Z</time>
      </trkpt>
      <trkpt lat="44.05399" lon="6.28577">
        <ele>944.59997558594</ele>
        <time>2019-10-20T09:16:16.000Z</time>
      </trkpt>
      <trkpt lat="44.054" lon="6.28578">
        <ele>944.59997558594</ele>
        <time>2019-10-20T09:16:19.000Z</time>
      </trkpt>
      <trkpt lat="44.05402" lon="6.28588">
        <ele>945.59997558594</ele>
        <time>2019-10-20T09:16:30.000Z</time>
      </trkpt>
      <trkpt lat="44.05406" lon="6.28596">
        <ele>944.59997558594</ele>
        <time>2019-10-20T09:16:35.000Z</time>
      </trkpt>
      <trkpt lat="44.05411" lon="6.28603">
        <ele>944.20001220703</ele>
        <time>2019-10-20T09:16:41.000Z</time>
      </trkpt>
      <trkpt lat="44.05418" lon="6.28612">
        <ele>940.79998779297</ele>
        <time>2019-10-20T09:16:49.000Z</time>
      </trkpt>
      <trkpt lat="44.05419" lon="6.28614">
        <ele>940.59997558594</ele>
        <time>2019-10-20T09:16:53.000Z</time>
      </trkpt>
      <trkpt lat="44.05421" lon="6.28613">
        <ele>940.20001220703</ele>
        <time>2019-10-20T09:17:07.000Z</time>
      </trkpt>
      <trkpt lat="44.05428" lon="6.28616">
        <ele>940</ele>
        <time>2019-10-20T09:17:29.000Z</time>
      </trkpt>
      <trkpt lat="44.05428" lon="6.28616">
        <ele>940</ele>
        <time>2019-10-20T09:17:31.000Z</time>
      </trkpt>
      <trkpt lat="44.05429" lon="6.28613">
        <ele>939.59997558594</ele>
        <time>2019-10-20T09:17:41.000Z</time>
      </trkpt>
      <trkpt lat="44.0543" lon="6.28612">
        <ele>939.20001220703</ele>
        <time>2019-10-20T09:17:47.000Z</time>
      </trkpt>
      <trkpt lat="44.05428" lon="6.28616">
        <ele>939.40002441406</ele>
        <time>2019-10-20T09:17:55.000Z</time>
      </trkpt>
      <trkpt lat="44.05427" lon="6.2862">
        <ele>940</ele>
        <time>2019-10-20T09:18:15.000Z</time>
      </trkpt>
      <trkpt lat="44.05427" lon="6.28616">
        <ele>939.20001220703</ele>
        <time>2019-10-20T09:18:19.000Z</time>
      </trkpt>
      <trkpt lat="44.05423" lon="6.28608">
        <ele>938.59997558594</ele>
        <time>2019-10-20T09:18:30.000Z</time>
      </trkpt>
      <trkpt lat="44.05421" lon="6.28603">
        <ele>938.59997558594</ele>
        <time>2019-10-20T09:18:42.000Z</time>
      </trkpt>
      <trkpt lat="44.05422" lon="6.28605">
        <ele>938.40002441406</ele>
        <time>2019-10-20T09:18:45.000Z</time>
      </trkpt>
      <trkpt lat="44.05422" lon="6.28608">
        <ele>937.79998779297</ele>
        <time>2019-10-20T09:18:49.000Z</time>
      </trkpt>
      <trkpt lat="44.05422" lon="6.28609">
        <ele>937.79998779297</ele>
        <time>2019-10-20T09:18:50.000Z</time>
      </trkpt>
      <trkpt lat="44.05423" lon="6.28615">
        <ele>937.40002441406</ele>
        <time>2019-10-20T09:19:00.000Z</time>
      </trkpt>
      <trkpt lat="44.05421" lon="6.28618">
        <ele>937.79998779297</ele>
        <time>2019-10-20T09:19:09.000Z</time>
      </trkpt>
      <trkpt lat="44.05424" lon="6.28615">
        <ele>937</ele>
        <time>2019-10-20T09:19:19.000Z</time>
      </trkpt>
      <trkpt lat="44.0542" lon="6.28609">
        <ele>937.79998779297</ele>
        <time>2019-10-20T09:19:39.000Z</time>
      </trkpt>
      <trkpt lat="44.05422" lon="6.28613">
        <ele>936.59997558594</ele>
        <time>2019-10-20T09:19:49.000Z</time>
      </trkpt>
      <trkpt lat="44.05421" lon="6.28616">
        <ele>936.59997558594</ele>
        <time>2019-10-20T09:19:59.000Z</time>
      </trkpt>
      <trkpt lat="44.05423" lon="6.28617">
        <ele>937.20001220703</ele>
        <time>2019-10-20T09:20:11.000Z</time>
      </trkpt>
      <trkpt lat="44.05423" lon="6.28617">
        <ele>937.20001220703</ele>
        <time>2019-10-20T09:20:12.000Z</time>
      </trkpt>
      <trkpt lat="44.05424" lon="6.28615">
        <ele>937.20001220703</ele>
        <time>2019-10-20T09:20:17.000Z</time>
      </trkpt>
      <trkpt lat="44.05423" lon="6.28615">
        <ele>936.79998779297</ele>
        <time>2019-10-20T09:20:21.000Z</time>
      </trkpt>
      <trkpt lat="44.05422" lon="6.28616">
        <ele>936.79998779297</ele>
        <time>2019-10-20T09:20:23.000Z</time>
      </trkpt>
      <trkpt lat="44.05422" lon="6.28616">
        <ele>937.20001220703</ele>
        <time>2019-10-20T09:20:39.000Z</time>
      </trkpt>
      <trkpt lat="44.05423" lon="6.28615">
        <ele>937.20001220703</ele>
        <time>2019-10-20T09:20:41.000Z</time>
      </trkpt>
      <trkpt lat="44.05418" lon="6.28607">
        <ele>938.59997558594</ele>
        <time>2019-10-20T09:20:52.000Z</time>
      </trkpt>
      <trkpt lat="44.05419" lon="6.28605">
        <ele>939</ele>
        <time>2019-10-20T09:20:59.000Z</time>
      </trkpt>
      <trkpt lat="44.0542" lon="6.28606">
        <ele>939.79998779297</ele>
        <time>2019-10-20T09:21:09.000Z</time>
      </trkpt>
      <trkpt lat="44.05424" lon="6.28615">
        <ele>937.79998779297</ele>
        <time>2019-10-20T09:21:26.000Z</time>
      </trkpt>
      <trkpt lat="44.05423" lon="6.28617">
        <ele>936.79998779297</ele>
        <time>2019-10-20T09:21:35.000Z</time>
      </trkpt>
      <trkpt lat="44.05421" lon="6.28617">
        <ele>936.59997558594</ele>
        <time>2019-10-20T09:21:49.000Z</time>
      </trkpt>
      <trkpt lat="44.05424" lon="6.28616">
        <ele>937</ele>
        <time>2019-10-20T09:21:59.000Z</time>
      </trkpt>
      <trkpt lat="44.05425" lon="6.28619">
        <ele>936.40002441406</ele>
        <time>2019-10-20T09:22:09.000Z</time>
      </trkpt>
      <trkpt lat="44.05422" lon="6.28628">
        <ele>935.40002441406</ele>
        <time>2019-10-20T09:22:26.000Z</time>
      </trkpt>
      <trkpt lat="44.05421" lon="6.28631">
        <ele>935</ele>
        <time>2019-10-20T09:22:29.000Z</time>
      </trkpt>
      <trkpt lat="44.05423" lon="6.28638">
        <ele>934.40002441406</ele>
        <time>2019-10-20T09:22:31.000Z</time>
      </trkpt>
      <trkpt lat="44.05433" lon="6.28662">
        <ele>932</ele>
        <time>2019-10-20T09:22:40.000Z</time>
      </trkpt>
      <trkpt lat="44.05442" lon="6.28685">
        <ele>929.59997558594</ele>
        <time>2019-10-20T09:22:47.000Z</time>
      </trkpt>
      <trkpt lat="44.05448" lon="6.28695">
        <ele>926.59997558594</ele>
        <time>2019-10-20T09:22:50.000Z</time>
      </trkpt>
      <trkpt lat="44.05453" lon="6.28704">
        <ele>923.79998779297</ele>
        <time>2019-10-20T09:22:52.000Z</time>
      </trkpt>
      <trkpt lat="44.05455" lon="6.28706">
        <ele>922.40002441406</ele>
        <time>2019-10-20T09:22:53.000Z</time>
      </trkpt>
      <trkpt lat="44.0546" lon="6.28713">
        <ele>918.40002441406</ele>
        <time>2019-10-20T09:22:57.000Z</time>
      </trkpt>
      <trkpt lat="44.0547" lon="6.28716">
        <ele>915</ele>
        <time>2019-10-20T09:23:00.000Z</time>
      </trkpt>
      <trkpt lat="44.05477" lon="6.28721">
        <ele>912.59997558594</ele>
        <time>2019-10-20T09:23:02.000Z</time>
      </trkpt>
      <trkpt lat="44.05482" lon="6.28728">
        <ele>909.20001220703</ele>
        <time>2019-10-20T09:23:04.000Z</time>
      </trkpt>
      <trkpt lat="44.05489" lon="6.28732">
        <ele>904.79998779297</ele>
        <time>2019-10-20T09:23:07.000Z</time>
      </trkpt>
      <trkpt lat="44.05489" lon="6.28732">
        <ele>903.59997558594</ele>
        <time>2019-10-20T09:23:08.000Z</time>
      </trkpt>
      <trkpt lat="44.05502" lon="6.28739">
        <ele>901.20001220703</ele>
        <time>2019-10-20T09:23:10.000Z</time>
      </trkpt>
      <trkpt lat="44.05505" lon="6.28743">
        <ele>899.79998779297</ele>
        <time>2019-10-20T09:23:11.000Z</time>
      </trkpt>
      <trkpt lat="44.05511" lon="6.28753">
        <ele>895</ele>
        <time>2019-10-20T09:23:15.000Z</time>
      </trkpt>
      <trkpt lat="44.05521" lon="6.28759">
        <ele>892.20001220703</ele>
        <time>2019-10-20T09:23:18.000Z</time>
      </trkpt>
      <trkpt lat="44.05528" lon="6.28766">
        <ele>889.59997558594</ele>
        <time>2019-10-20T09:23:20.000Z</time>
      </trkpt>
      <trkpt lat="44.05533" lon="6.28774">
        <ele>886.40002441406</ele>
        <time>2019-10-20T09:23:22.000Z</time>
      </trkpt>
      <trkpt lat="44.05536" lon="6.28777">
        <ele>885</ele>
        <time>2019-10-20T09:23:23.000Z</time>
      </trkpt>
      <trkpt lat="44.0554" lon="6.28786">
        <ele>881.20001220703</ele>
        <time>2019-10-20T09:23:26.000Z</time>
      </trkpt>
      <trkpt lat="44.05544" lon="6.28794">
        <ele>878.59997558594</ele>
        <time>2019-10-20T09:23:29.000Z</time>
      </trkpt>
      <trkpt lat="44.05552" lon="6.28804">
        <ele>877.59997558594</ele>
        <time>2019-10-20T09:23:31.000Z</time>
      </trkpt>
      <trkpt lat="44.05562" lon="6.28819">
        <ele>874.40002441406</ele>
        <time>2019-10-20T09:23:34.000Z</time>
      </trkpt>
      <trkpt lat="44.05562" lon="6.28837">
        <ele>869.20001220703</ele>
        <time>2019-10-20T09:23:37.000Z</time>
      </trkpt>
      <trkpt lat="44.05561" lon="6.28843">
        <ele>868</ele>
        <time>2019-10-20T09:23:38.000Z</time>
      </trkpt>
      <trkpt lat="44.05561" lon="6.28848">
        <ele>864.40002441406</ele>
        <time>2019-10-20T09:23:40.000Z</time>
      </trkpt>
      <trkpt lat="44.05565" lon="6.28863">
        <ele>861.20001220703</ele>
        <time>2019-10-20T09:23:42.000Z</time>
      </trkpt>
      <trkpt lat="44.0557" lon="6.28871">
        <ele>858.40002441406</ele>
        <time>2019-10-20T09:23:45.000Z</time>
      </trkpt>
      <trkpt lat="44.05574" lon="6.28876">
        <ele>855.59997558594</ele>
        <time>2019-10-20T09:23:48.000Z</time>
      </trkpt>
      <trkpt lat="44.05576" lon="6.28878">
        <ele>854.79998779297</ele>
        <time>2019-10-20T09:23:49.000Z</time>
      </trkpt>
      <trkpt lat="44.05578" lon="6.2888">
        <ele>853.40002441406</ele>
        <time>2019-10-20T09:23:51.000Z</time>
      </trkpt>
      <trkpt lat="44.05572" lon="6.28896">
        <ele>850.59997558594</ele>
        <time>2019-10-20T09:23:58.000Z</time>
      </trkpt>
      <trkpt lat="44.05571" lon="6.28896">
        <ele>850.20001220703</ele>
        <time>2019-10-20T09:23:59.000Z</time>
      </trkpt>
      <trkpt lat="44.05573" lon="6.28906">
        <ele>848.79998779297</ele>
        <time>2019-10-20T09:24:09.000Z</time>
      </trkpt>
      <trkpt lat="44.05575" lon="6.28911">
        <ele>848.40002441406</ele>
        <time>2019-10-20T09:24:19.000Z</time>
      </trkpt>
      <trkpt lat="44.05574" lon="6.2891">
        <ele>847.20001220703</ele>
        <time>2019-10-20T09:24:29.000Z</time>
      </trkpt>
      <trkpt lat="44.05574" lon="6.28908">
        <ele>847.20001220703</ele>
        <time>2019-10-20T09:24:49.000Z</time>
      </trkpt>
      <trkpt lat="44.05574" lon="6.28908">
        <ele>847.40002441406</ele>
        <time>2019-10-20T09:24:50.000Z</time>
      </trkpt>
      <trkpt lat="44.05575" lon="6.28911">
        <ele>846.40002441406</ele>
        <time>2019-10-20T09:24:59.000Z</time>
      </trkpt>
      <trkpt lat="44.05577" lon="6.28911">
        <ele>845.20001220703</ele>
        <time>2019-10-20T09:25:14.000Z</time>
      </trkpt>
      <trkpt lat="44.05577" lon="6.28911">
        <ele>844.79998779297</ele>
        <time>2019-10-20T09:25:17.000Z</time>
      </trkpt>
      <trkpt lat="44.05579" lon="6.28913">
        <ele>844</ele>
        <time>2019-10-20T09:25:26.000Z</time>
      </trkpt>
      <trkpt lat="44.05579" lon="6.28913">
        <ele>843.59997558594</ele>
        <time>2019-10-20T09:25:27.000Z</time>
      </trkpt>
      <trkpt lat="44.05579" lon="6.28914">
        <ele>843.20001220703</ele>
        <time>2019-10-20T09:25:33.000Z</time>
      </trkpt>
      <trkpt lat="44.05579" lon="6.28918">
        <ele>845.20001220703</ele>
        <time>2019-10-20T09:25:42.000Z</time>
      </trkpt>
      <trkpt lat="44.05579" lon="6.28919">
        <ele>845.79998779297</ele>
        <time>2019-10-20T09:25:44.000Z</time>
      </trkpt>
      <trkpt lat="44.05583" lon="6.28922">
        <ele>846.20001220703</ele>
        <time>2019-10-20T09:25:50.000Z</time>
      </trkpt>
      <trkpt lat="44.05582" lon="6.28923">
        <ele>846.20001220703</ele>
        <time>2019-10-20T09:25:54.000Z</time>
      </trkpt>
      <trkpt lat="44.05583" lon="6.28923">
        <ele>846.20001220703</ele>
        <time>2019-10-20T09:25:56.000Z</time>
      </trkpt>
      <trkpt lat="44.05583" lon="6.28924">
        <ele>846</ele>
        <time>2019-10-20T09:26:02.000Z</time>
      </trkpt>
      <trkpt lat="44.05584" lon="6.28924">
        <ele>845.59997558594</ele>
        <time>2019-10-20T09:26:06.000Z</time>
      </trkpt>
      <trkpt lat="44.0559" lon="6.28926">
        <ele>845.79998779297</ele>
        <time>2019-10-20T09:26:11.000Z</time>
      </trkpt>
      <trkpt lat="44.05599" lon="6.28935">
        <ele>845.59997558594</ele>
        <time>2019-10-20T09:26:19.000Z</time>
      </trkpt>
      <trkpt lat="44.05606" lon="6.2894">
        <ele>845.40002441406</ele>
        <time>2019-10-20T09:26:23.000Z</time>
      </trkpt>
      <trkpt lat="44.05628" lon="6.28943">
        <ele>845.20001220703</ele>
        <time>2019-10-20T09:26:35.000Z</time>
      </trkpt>
    </trkseg>
  </trk>
</gpx>